AirNav   Air Wisconsin Up To $57,000 Bonus
 
 630 users online  

9OA2 Hueston Woods Lodge Heliport
Oxford, Ohio, USA

GOING TO OXFORD?


FAA INFORMATION EFFECTIVE 07 NOVEMBER 2019

Location

FAA Identifier: 9OA2
Lat/Long: 39-34-58.1860N 084-45-45.8370W
39-34.969767N 084-45.763950W
39.5828294,-84.7627325
(estimated)
Elevation: 920 ft. / 280 m (estimated)
Variation: 03W (1985)
From city: 5 miles N of OXFORD, OH
Time zone: UTC -5 (UTC -4 during Daylight Saving Time)
Zip code: 45003

Heliport Operations

Heliport use: Private use. Permission required prior to landing
Activation date: 01/1981
Control tower: no
ARTCC: INDIANAPOLIS CENTER
FSS: DAYTON FLIGHT SERVICE STATION
Attendance: UNATNDD
Wind indicator: yes
Segmented circle: no

Heliport Communications

WX AWOS-3PT at OXD (5 nm S): 118.625 (513-273-2032)
WX AWOS-3 at RID (11 nm N): 121.225 (765-983-1903)
WX AWOS-3 at MWO (17 nm E): 120.025 (513-422-3505)
WX ASOS at HAO (17 nm SE): 121.425 (513-863-6137)
WX AWOS-3 at CEV (18 nm W): 118.325 (765-827-6649)
WX AWOS-3PT at I67 (19 nm S): 118.15 (513-569-4964)

Nearby radio navigation aids

VOR radial/distance  VOR name  Freq  Var
DQNr214/31.0DAYTON VOR/DME114.5001W
CVGr359/34.1CINCINNATI VORTAC117.3004W

 
NDB name  Hdg/Dist  Freq  Var  ID
HOOK FIELD293/15.423904WHKF .... -.- ..-.
BATESVILLE063/27.025405WHLB .... .-.. -...
NEW CASTLE131/31.238506WUWL ..- .-- .-..
CINCINNATI326/32.033504WLUK .-.. ..- -.-
SPORTYS324/39.624504WPWF .--. .-- ..-.

Heliport Services

Runway Information

Helipad H1

Dimensions: 75 x 75 ft. / 23 x 23 m
Surface: turf
Operational restrictions: INGRESS/EGRESS N & S THRU SE CCLKWS.
Latitude: 39-34.969767N
Longitude: 084-45.763950W
Elevation: 920.0 ft.
Traffic pattern: leftleft

Heliport Ownership and Management from official FAA records

Ownership: Publicly-owned
Owner: OH DEPT OF NATURAL RESOURCES
2829 W GRANVILLE ROAD
WORTHINGTON, OH 43235
Phone 614-466-4563
Manager: PHILIP A. TALBOTT, CONTACT

Additional Remarks

A52-H1 25'POLE 200'NW. 40'TREES 300'N & 15'TREES 300'S.
FOR CD CTC CINCINNATI APCH AT 859-372-6440

Instrument Procedures

There are no published instrument procedures at 9OA2.

Some nearby airports with instrument procedures:

KOXD - Miami University Airport (5 nm S)
KRID - Richmond Municipal Airport (11 nm N)
KMWO - Middletown Regional Airport/Hook Field (17 nm E)
KHAO - Butler County Regional Airport-Hogan Field (17 nm SE)
KCEV - Mettel Field Airport (18 nm W)
I67 - Cincinnati West Airport (19 nm S)
 
Loc | Ops | Rwys | IFR | FBO | Links
Com | Nav | Svcs | Stats | Notes
Area around 9OA2 (Hueston Woods Lodge Heliport)
 
Road maps at: MapQuest Bing Google
 
Aerial photo
No photo
 
Sectional chart

 
Airport distance calculator
Flying to Hueston Woods Lodge Heliport? Find the distance to fly.

From to 9OA2

Sunrise and sunset
Times for 19-Nov-2019
 Local
(UTC-5)
 Zulu
(UTC)
Morning civil twilight07:0012:00
Sunrise07:2912:29
Sunset17:2022:20
Evening civil twilight17:4922:49

Current date and time
Zulu (UTC)  19-Nov-2019 05:15:54
Local (UTC-5)  19-Nov-2019 00:15:54
 
METAR
KOXD 
5nm S 
190455Z AUTO 25003KT 7SM OVC006 04/04 A2978 RMK AO2 T00350035 400641011
KRID 
11nm N 
190455Z AUTO 25004KT 3SM BR OVC005 02/02 A2979 RMK AO2
KHAO 
17nm SE 
190453Z AUTO 25005KT 7SM OVC009 04/00 A2981 RMK AO2 SLP099 T00440000 400831033
KMWO 
17nm E 
190455Z AUTO 21004KT 5SM BR BKN008 BKN013 OVC031 04/03 A2981 RMK AO2 T00380025
KI67 
19nm S 
190455Z AUTO 00000KT 10SM OVC026 03/02 A2981 RMK AO1
TAF
KDAY 
32nm NE 
190319Z 1903/1924 28006KT 4SM -DZ BR OVC005 FM190700 25004KT 4SM BR OVC012 FM191200 22003KT 5SM BR BKN022 FM191500 20004KT P6SM BKN022 FM192000 19005KT P6SM VCSH OVC012
KCVG 
32nm S 
190319Z 1903/2006 27004KT 5SM -DZ BR SCT005 BKN012 OVC025 TEMPO 1903/1906 OVC005 FM190600 24003KT 4SM BR OVC012 FM191200 19003KT 5SM BR BKN024 FM191500 18005KT P6SM BKN040 FM191700 18006KT P6SM VCSH BKN025 FM191800 18006KT P6SM VCSH OVC012 FM200000 24004KT P6SM BKN012
KLUK 
33nm SE 
190319Z 1903/1924 27004KT 5SM -DZ BR SCT008 BKN016 OVC028 TEMPO 1903/1906 OVC008 FM190600 24003KT 4SM BR OVC016 FM191200 19003KT 5SM BR BKN028 FM191500 18005KT P6SM BKN045 FM191700 18006KT P6SM VCSH BKN028 FM191800 18006KT P6SM VCSH OVC016
KFFO 
36nm NE 
190300Z 1903/2009 26006KT 6000 -DZ BR OVC008 620206 QNH2974INS BECMG 1906/1908 24006KT 3200 -DZ BR OVC002 620206 QNH2975INS BECMG 1907/1909 24006KT 6000 -DZ BR OVC008 620206 QNH2976INS BECMG 1908/1910 24006KT 3200 -DZ BR OVC002 620206 QNH2976INS BECMG 1910/1912 23006KT 4800 BR OVC010 620206 QNH2977INS BECMG 1915/1916 21009KT 8000 -RA OVC020 620209 QNH2980INS BECMG 2003/2004 31006KT 9999 NSW OVC010 620406 QNH2992INS TX08/1921Z TN00/1912Z
NOTAMs
Click for the latest NOTAMs
NOTAMs are issued by the DoD/FAA and will open in a separate window not controlled by AirNav.

 

 
 

Would you like to see your business listed on this page?

 If your business provides an interesting product or service to pilots, flight crews, aircraft, or users of the Hueston Woods Lodge Heliport, you should consider listing it here.  To start the listing process, click on the button below
 
Add a business
 

Other Pages about Hueston Woods Lodge Heliport

Update a link
 
Copyright © AirNav, LLC. All rights reserved. Privacy Policy  Contact